Terminal Aerodrome Forecast
Issued by NWS Columbia, SC

Home | Current Version | Previous Version | Text Only | Print | Product List | Glossary On
Versions: 1 2 3 4 5 6 7 8 9 10 11 12 13 14 15 16 17 18 19 20 21 22 23 24 25 26 27 28 29 30 31 32 33 34 35 36 37 38 39 40 41 42 43 44 45 46 47 48 49
068
FTAK31 PAJN 221138
TAFAGS
TAF
PAGS 221138Z 2212/2312 33004KT P6SM FEW015
      TEMPO 2212/2216 2SM BR OVC015
     FM221600 VRB03KT 5SM BR SCT015 BKN030 OVC050
     FM221800 00000KT P6SM SCT030 OVC050
     FM222100 32003KT P6SM VCSH SCT015 BKN030 OVC050
     FM230000 32004KT P6SM VCSH BKN015 OVC030
      AMD LTD TO CLD VIS AND WIND=

USA.gov is the U.S. government's official web portal to all federal, state and local government web resources and services.